createdAt,value
2018-08-31T00:00:21.918Z,91.30
2018-08-31T00:02:51.511Z,91.40
2018-08-31T00:05:57.391Z,91.40
2018-08-31T00:08:35.792Z,91.40
2018-08-31T00:11:32.183Z,91.50
2018-08-31T00:14:00.368Z,91.50
2018-08-31T00:16:28.551Z,91.60
2018-08-31T00:18:56.735Z,92.00
2018-08-31T00:21:25.135Z,91.70
2018-08-31T00:24:04.751Z,91.70
2018-08-31T00:27:44.146Z,91.70
2018-08-31T00:30:23.890Z,91.70
2018-08-31T00:33:06.662Z,91.80
2018-08-31T00:35:44.439Z,92.10
2018-08-31T00:40:27.175Z,91.70
2018-08-31T00:43:20.411Z,91.70
2018-08-31T00:45:48.631Z,91.90
2018-08-31T00:48:16.859Z,91.80
2018-08-31T00:50:45.059Z,91.70
2018-08-31T00:53:13.230Z,91.60
2018-08-31T00:55:41.413Z,91.50
2018-08-31T00:58:09.591Z,91.40
2018-08-31T01:00:37.774Z,91.50
2018-08-31T01:03:05.963Z,91.40
2018-08-31T01:05:34.142Z,91.40
2018-08-31T01:08:02.327Z,91.40
2018-08-31T01:10:30.520Z,91.40
2018-08-31T01:12:58.710Z,91.40
2018-08-31T01:15:26.899Z,91.40
2018-08-31T01:17:55.375Z,91.40
2018-08-31T01:20:23.558Z,91.50
2018-08-31T01:22:51.754Z,91.50
2018-08-31T01:25:19.976Z,91.60
2018-08-31T01:27:48.197Z,91.50
2018-08-31T01:30:16.404Z,91.50
2018-08-31T01:32:44.603Z,91.70
2018-08-31T01:35:12.798Z,91.60
2018-08-31T01:37:40.978Z,91.60
2018-08-31T01:40:09.155Z,91.60
2018-08-31T01:42:37.343Z,91.60
2018-08-31T01:45:05.529Z,91.70
2018-08-31T01:47:34.049Z,91.80
2018-08-31T01:50:02.230Z,91.60
2018-08-31T01:52:30.432Z,91.80
2018-08-31T01:54:58.609Z,91.70
2018-08-31T01:57:26.811Z,91.80
2018-08-31T01:59:55.003Z,91.70
2018-08-31T02:02:24.113Z,91.60
2018-08-31T02:04:53.116Z,91.70
2018-08-31T02:07:21.352Z,91.80
2018-08-31T02:09:49.540Z,91.50
2018-08-31T02:12:18.030Z,91.60
2018-08-31T02:14:46.217Z,91.50
2018-08-31T02:17:14.398Z,91.40
2018-08-31T02:19:42.575Z,91.30
2018-08-31T02:22:10.766Z,91.40
2018-08-31T02:24:38.946Z,91.30
2018-08-31T02:27:07.131Z,91.70
2018-08-31T02:29:35.579Z,91.40
2018-08-31T02:32:03.779Z,91.50
2018-08-31T02:34:31.955Z,91.40
2018-08-31T02:37:00.139Z,91.50
2018-08-31T02:39:28.328Z,91.40
2018-08-31T02:41:56.516Z,91.30
2018-08-31T02:44:24.706Z,91.40
2018-08-31T02:46:52.932Z,91.40
2018-08-31T02:49:21.175Z,91.40
2018-08-31T02:51:49.363Z,91.30
2018-08-31T02:54:17.546Z,91.30
2018-08-31T02:56:45.730Z,91.40
2018-08-31T02:59:13.909Z,91.50
2018-08-31T03:01:42.095Z,91.40
2018-08-31T03:04:10.278Z,91.30
2018-08-31T03:06:38.790Z,91.30
2018-08-31T03:09:07.318Z,91.40
2018-08-31T03:11:35.584Z,91.30
2018-08-31T03:14:03.689Z,91.50
2018-08-31T03:16:31.880Z,91.30
2018-08-31T03:19:00.059Z,91.30
2018-08-31T03:21:28.486Z,91.40
2018-08-31T03:23:56.628Z,91.40
2018-08-31T03:26:24.840Z,91.30
2018-08-31T03:28:53.054Z,91.10
2018-08-31T03:31:21.403Z,91.10
2018-08-31T03:33:49.598Z,91.10
2018-08-31T03:36:17.775Z,91.20
2018-08-31T03:38:45.990Z,91.30
2018-08-31T03:41:14.179Z,91.10
2018-08-31T03:43:42.354Z,91.20
2018-08-31T03:46:10.531Z,91.30
2018-08-31T03:48:38.830Z,91.20
2018-08-31T03:51:07.011Z,91.20
2018-08-31T03:53:35.495Z,91.10
2018-08-31T03:56:03.795Z,91.10
2018-08-31T03:58:31.981Z,91.00
2018-08-31T04:01:00.167Z,91.10
2018-08-31T04:03:28.359Z,91.30
2018-08-31T04:05:56.567Z,91.30
2018-08-31T04:08:24.776Z,91.40
2018-08-31T04:10:52.951Z,91.10
2018-08-31T04:13:21.138Z,91.30
2018-08-31T04:15:49.314Z,91.20
2018-08-31T04:18:17.503Z,91.10
2018-08-31T04:20:45.683Z,91.30
2018-08-31T04:23:13.868Z,91.10
2018-08-31T04:25:42.042Z,91.20
2018-08-31T04:28:10.462Z,91.20
2018-08-31T04:30:38.907Z,91.40
2018-08-31T04:33:07.103Z,91.40
2018-08-31T04:35:35.274Z,91.10
2018-08-31T04:38:03.580Z,91.20
2018-08-31T04:40:31.755Z,91.20
2018-08-31T04:43:00.284Z,91.30
2018-08-31T04:45:28.467Z,91.40
2018-08-31T04:47:56.679Z,91.40
2018-08-31T04:50:24.898Z,91.40
2018-08-31T04:52:53.084Z,91.30
2018-08-31T04:55:21.287Z,91.10
2018-08-31T04:57:49.480Z,91.10
2018-08-31T05:00:17.654Z,91.20
2018-08-31T05:02:46.110Z,91.20
2018-08-31T05:05:14.289Z,91.20
2018-08-31T05:07:42.483Z,91.30
2018-08-31T05:10:10.667Z,91.20
2018-08-31T05:12:38.859Z,91.30
2018-08-31T05:15:07.306Z,91.30
2018-08-31T05:17:35.482Z,91.20
2018-08-31T05:20:03.864Z,91.40
2018-08-31T05:22:32.069Z,91.10
2018-08-31T05:25:00.235Z,91.10
2018-08-31T05:27:28.569Z,91.20
2018-08-31T05:29:57.096Z,90.90
2018-08-31T05:32:25.294Z,91.10
2018-08-31T05:34:53.524Z,91.00
2018-08-31T05:37:21.654Z,91.10
2018-08-31T05:39:49.834Z,90.90
2018-08-31T05:42:18.015Z,91.10
2018-08-31T05:44:46.206Z,90.70
2018-08-31T05:47:14.382Z,90.90
2018-08-31T05:49:42.862Z,90.80
2018-08-31T05:52:11.033Z,90.60
2018-08-31T05:54:39.231Z,90.90
2018-08-31T05:57:07.411Z,90.90
2018-08-31T05:59:35.593Z,90.90
2018-08-31T06:02:03.784Z,90.70
2018-08-31T06:04:31.974Z,90.60
2018-08-31T06:07:00.230Z,90.80
2018-08-31T06:09:28.387Z,90.80
2018-08-31T06:11:56.662Z,90.70
2018-08-31T06:14:25.025Z,90.60
2018-08-31T06:16:53.203Z,90.60
2018-08-31T06:19:21.390Z,90.50
2018-08-31T06:21:49.888Z,90.70
2018-08-31T06:24:18.075Z,90.40
2018-08-31T06:26:46.300Z,90.40
2018-08-31T06:29:14.491Z,90.80
2018-08-31T06:31:42.663Z,91.10
2018-08-31T06:34:10.858Z,90.90
2018-08-31T06:36:39.039Z,90.90
2018-08-31T06:39:07.551Z,90.90
2018-08-31T06:41:36.039Z,91.00
2018-08-31T06:44:04.257Z,91.10
2018-08-31T06:46:32.468Z,90.80
2018-08-31T06:49:00.688Z,90.50
2018-08-31T06:51:28.969Z,90.40
2018-08-31T06:53:57.061Z,90.70
2018-08-31T06:56:25.238Z,90.60
2018-08-31T06:58:53.451Z,90.90
2018-08-31T07:01:21.617Z,90.60
2018-08-31T07:03:49.870Z,90.80
2018-08-31T07:06:17.974Z,90.80
2018-08-31T07:08:46.151Z,90.90
2018-08-31T07:11:14.343Z,90.70
2018-08-31T07:13:42.555Z,90.80
2018-08-31T07:16:10.744Z,90.60
2018-08-31T07:18:38.914Z,90.50
2018-08-31T07:21:07.106Z,90.70
2018-08-31T07:23:35.275Z,90.90
2018-08-31T07:26:03.504Z,90.70
2018-08-31T07:28:31.932Z,90.70
2018-08-31T07:31:00.119Z,91.10
2018-08-31T07:33:28.309Z,91.40
2018-08-31T07:35:56.778Z,91.20
2018-08-31T07:38:24.963Z,91.10
2018-08-31T07:40:53.703Z,91.10
2018-08-31T07:43:22.148Z,91.10
2018-08-31T07:45:50.332Z,91.30
2018-08-31T07:48:18.523Z,91.10
2018-08-31T07:50:47.039Z,90.30
2018-08-31T07:53:15.207Z,90.50
2018-08-31T07:55:43.391Z,90.60
2018-08-31T07:58:11.579Z,91.00
2018-08-31T08:00:39.775Z,90.80
2018-08-31T08:03:07.955Z,90.80
2018-08-31T08:05:36.258Z,91.10
2018-08-31T08:08:04.339Z,91.40
2018-08-31T08:10:32.555Z,91.20
2018-08-31T08:13:00.807Z,91.20
2018-08-31T08:15:28.986Z,91.10
2018-08-31T08:17:57.167Z,91.20
2018-08-31T08:20:25.702Z,91.30
2018-08-31T08:22:53.883Z,91.50
2018-08-31T08:25:22.063Z,91.60
2018-08-31T08:27:50.254Z,91.50
2018-08-31T08:30:18.442Z,91.70
2018-08-31T08:32:46.625Z,91.60
2018-08-31T08:35:14.811Z,92.20
2018-08-31T08:37:43.211Z,92.60
2018-08-31T08:40:11.410Z,92.40
2018-08-31T08:42:39.727Z,92.20
2018-08-31T08:45:08.067Z,92.30
2018-08-31T08:47:36.288Z,91.80
2018-08-31T08:50:04.923Z,91.70
2018-08-31T08:52:33.111Z,92.10
2018-08-31T08:55:01.347Z,92.70
2018-08-31T08:57:29.555Z,92.00
2018-08-31T08:59:57.772Z,92.30
2018-08-31T09:02:25.998Z,92.60
2018-08-31T09:04:54.184Z,92.50
2018-08-31T09:07:22.418Z,92.20
2018-08-31T09:09:50.846Z,92.40
2018-08-31T09:12:19.091Z,92.30
2018-08-31T09:14:47.198Z,92.60
2018-08-31T09:17:15.394Z,92.50
2018-08-31T09:19:43.570Z,92.80
2018-08-31T09:22:11.762Z,92.90
2018-08-31T09:24:39.988Z,92.90
2018-08-31T09:27:08.411Z,92.70
2018-08-31T09:29:36.595Z,92.70
2018-08-31T09:32:09.049Z,92.40
2018-08-31T09:34:41.491Z,92.70
2018-08-31T09:37:09.698Z,93.00
2018-08-31T09:39:37.908Z,92.90
2018-08-31T09:42:06.143Z,93.00
2018-08-31T09:44:34.356Z,93.00
2018-08-31T09:47:02.534Z,93.00
2018-08-31T09:49:30.796Z,92.80
2018-08-31T09:51:58.970Z,92.70
2018-08-31T09:54:27.146Z,92.80
2018-08-31T09:56:55.330Z,92.70
2018-08-31T09:59:23.499Z,92.50
2018-08-31T10:01:51.682Z,93.10
2018-08-31T10:04:19.867Z,92.60
2018-08-31T10:06:48.065Z,92.60
2018-08-31T10:09:16.239Z,92.90
2018-08-31T10:11:44.439Z,92.70
2018-08-31T10:14:12.643Z,92.80
2018-08-31T10:16:40.844Z,92.60
2018-08-31T10:19:09.027Z,92.40
2018-08-31T10:21:37.210Z,92.90
2018-08-31T10:24:05.593Z,92.90
2018-08-31T10:26:33.837Z,93.00
2018-08-31T10:29:02.051Z,92.50
2018-08-31T10:31:30.242Z,92.50
2018-08-31T10:33:59.471Z,92.50
2018-08-31T10:36:27.662Z,92.80
2018-08-31T10:38:55.866Z,92.70
2018-08-31T10:41:24.138Z,92.90
2018-08-31T10:43:52.323Z,93.00
2018-08-31T10:46:20.582Z,93.10
2018-08-31T10:48:48.753Z,93.00
2018-08-31T10:51:16.937Z,92.90
2018-08-31T10:53:45.154Z,93.10
2018-08-31T10:56:13.368Z,93.10
2018-08-31T10:58:41.554Z,93.30
2018-08-31T11:01:09.746Z,93.00
2018-08-31T11:03:37.956Z,93.20
2018-08-31T11:06:06.143Z,93.10
2018-08-31T11:08:34.375Z,93.10
2018-08-31T11:11:02.553Z,93.00
2018-08-31T11:13:30.748Z,92.90
2018-08-31T11:15:58.929Z,93.10
2018-08-31T11:18:27.153Z,93.30
2018-08-31T11:20:55.331Z,93.00
2018-08-31T11:23:23.564Z,93.00
2018-08-31T11:25:52.079Z,93.30
2018-08-31T11:28:20.268Z,93.20
2018-08-31T11:30:48.455Z,93.20
2018-08-31T11:33:16.630Z,93.40
2018-08-31T11:35:44.831Z,93.50
2018-08-31T11:38:13.027Z,93.30
2018-08-31T11:40:41.575Z,93.10
2018-08-31T11:43:09.790Z,93.10
2018-08-31T11:45:37.988Z,92.50
2018-08-31T11:48:06.614Z,93.00
2018-08-31T11:50:34.798Z,93.00
2018-08-31T11:53:03.503Z,92.50
2018-08-31T11:55:31.723Z,92.60
2018-08-31T11:57:59.939Z,92.50
2018-08-31T12:00:28.145Z,92.30
2018-08-31T12:02:56.322Z,92.00
2018-08-31T12:05:24.537Z,92.70
2018-08-31T12:07:52.835Z,92.90
2018-08-31T12:10:20.963Z,92.20
2018-08-31T12:12:49.204Z,92.30
2018-08-31T12:15:17.374Z,92.40
2018-08-31T12:17:46.252Z,92.20
2018-08-31T12:20:14.418Z,92.80
2018-08-31T12:22:42.591Z,92.70
2018-08-31T12:25:10.904Z,92.30
2018-08-31T12:27:43.254Z,92.30
2018-08-31T12:30:11.487Z,92.70
2018-08-31T12:32:40.199Z,92.70
2018-08-31T12:35:08.386Z,92.50
2018-08-31T12:37:36.766Z,92.50
2018-08-31T12:40:05.645Z,92.40
2018-08-31T12:42:33.818Z,92.40
2018-08-31T12:45:02.016Z,92.20
2018-08-31T12:47:30.233Z,91.90
2018-08-31T12:49:58.461Z,92.00
2018-08-31T12:52:26.700Z,92.00
2018-08-31T12:54:54.890Z,92.10
2018-08-31T12:57:23.107Z,92.40
2018-08-31T12:59:56.672Z,92.00
2018-08-31T13:02:24.838Z,92.50
2018-08-31T13:04:53.025Z,92.40
2018-08-31T13:07:21.515Z,92.20
2018-08-31T13:09:49.727Z,92.40
2018-08-31T13:12:17.925Z,92.60
2018-08-31T13:14:46.135Z,92.50
2018-08-31T13:17:14.315Z,92.90
2018-08-31T13:19:42.507Z,92.80
2018-08-31T13:22:10.707Z,92.50
2018-08-31T13:24:38.928Z,92.70
2018-08-31T13:27:07.087Z,92.70
2018-08-31T13:29:35.283Z,92.60
2018-08-31T13:32:03.497Z,92.20
2018-08-31T13:34:31.712Z,92.50
2018-08-31T13:37:00.028Z,93.00
2018-08-31T13:39:28.231Z,93.00
2018-08-31T13:41:56.480Z,93.00
2018-08-31T13:44:24.666Z,93.00
2018-08-31T13:46:52.881Z,92.70
2018-08-31T13:49:21.161Z,92.70
2018-08-31T13:51:49.485Z,93.10
2018-08-31T13:54:17.771Z,92.80
2018-08-31T13:56:46.032Z,93.10
2018-08-31T13:59:14.230Z,93.20
2018-08-31T14:01:42.535Z,92.70
2018-08-31T14:04:10.775Z,92.70
2018-08-31T14:06:39.583Z,92.60
2018-08-31T14:09:08.042Z,92.40
2018-08-31T14:11:36.230Z,93.00
2018-08-31T14:14:04.746Z,92.90
2018-08-31T14:16:35.342Z,92.60
2018-08-31T14:19:04.840Z,92.40
2018-08-31T14:21:33.096Z,92.30
2018-08-31T14:24:01.446Z,92.30
2018-08-31T14:26:30.379Z,92.40
2018-08-31T14:28:58.566Z,92.20
2018-08-31T14:31:26.887Z,92.10
2018-08-31T14:33:55.099Z,91.80
2018-08-31T14:36:23.422Z,92.10
2018-08-31T14:38:52.282Z,92.20
2018-08-31T14:41:20.645Z,92.60
2018-08-31T14:43:48.968Z,92.10
2018-08-31T14:46:17.119Z,92.00
2018-08-31T14:48:45.362Z,91.80
2018-08-31T14:51:13.610Z,91.60
2018-08-31T14:53:41.883Z,91.80
2018-08-31T14:56:10.899Z,91.30
2018-08-31T14:58:39.108Z,92.20
2018-08-31T15:01:07.259Z,91.90
2018-08-31T15:03:35.527Z,91.90
2018-08-31T15:06:03.718Z,91.70
2018-08-31T15:08:32.075Z,92.30
2018-08-31T15:11:00.301Z,92.60
2018-08-31T15:13:28.533Z,92.50
2018-08-31T15:15:56.752Z,91.60
2018-08-31T15:18:25.008Z,92.00
2018-08-31T15:20:53.284Z,91.30
2018-08-31T15:23:21.472Z,91.90
2018-08-31T15:25:50.043Z,92.20
2018-08-31T15:28:18.330Z,92.10
2018-08-31T15:30:46.595Z,92.00
2018-08-31T15:33:14.864Z,92.30
2018-08-31T15:35:44.085Z,92.10
2018-08-31T15:38:12.327Z,92.20
2018-08-31T15:40:40.519Z,92.30
2018-08-31T15:43:08.930Z,92.40
2018-08-31T15:45:37.098Z,92.30
2018-08-31T15:48:05.379Z,92.30
2018-08-31T15:50:33.706Z,92.40
2018-08-31T15:53:01.878Z,92.30
2018-08-31T15:55:30.091Z,92.20
2018-08-31T15:57:58.266Z,92.60
2018-08-31T16:00:26.493Z,91.80
2018-08-31T16:02:54.705Z,92.60
2018-08-31T16:05:22.923Z,91.80
2018-08-31T16:07:51.284Z,91.40
2018-08-31T16:10:19.480Z,92.30
2018-08-31T16:12:48.126Z,92.10
2018-08-31T16:15:16.294Z,92.60
2018-08-31T16:17:44.578Z,92.20
2018-08-31T16:20:12.918Z,92.40
2018-08-31T16:22:41.752Z,92.10
2018-08-31T16:25:09.998Z,92.00
2018-08-31T16:27:38.350Z,92.10
2018-08-31T16:30:06.718Z,92.50
2018-08-31T16:32:34.891Z,92.30
2018-08-31T16:35:03.074Z,91.20
2018-08-31T16:37:31.718Z,91.60
2018-08-31T16:39:59.990Z,92.30
2018-08-31T16:42:28.194Z,92.20
2018-08-31T16:44:56.375Z,92.80
2018-08-31T16:47:24.993Z,92.40
2018-08-31T16:49:53.240Z,92.30
2018-08-31T16:52:21.672Z,92.50
2018-08-31T16:54:50.231Z,92.20
2018-08-31T16:57:18.434Z,92.20
2018-08-31T16:59:46.681Z,91.50
2018-08-31T17:02:14.891Z,92.10
2018-08-31T17:04:43.119Z,92.40
2018-08-31T17:07:11.313Z,92.10
2018-08-31T17:09:40.698Z,92.30
2018-08-31T17:12:08.879Z,92.60
2018-08-31T17:14:37.058Z,92.70
2018-08-31T17:17:05.343Z,92.50
2018-08-31T17:19:34.178Z,92.60
2018-08-31T17:22:02.691Z,92.50
2018-08-31T17:24:30.877Z,92.30
2018-08-31T17:27:04.440Z,92.30
2018-08-31T17:29:39.747Z,92.40
2018-08-31T17:32:13.298Z,92.40
2018-08-31T17:34:46.852Z,92.50
2018-08-31T17:37:20.466Z,92.40
2018-08-31T17:39:48.663Z,92.50
2018-08-31T17:42:16.850Z,92.60
2018-08-31T17:44:45.032Z,92.40
2018-08-31T17:47:13.471Z,92.20
2018-08-31T17:49:41.951Z,92.40
2018-08-31T17:52:10.154Z,92.40
2018-08-31T17:54:38.555Z,92.80
2018-08-31T17:57:06.750Z,92.70
2018-08-31T17:59:34.966Z,92.50
2018-08-31T18:02:03.257Z,92.60
2018-08-31T18:04:31.467Z,92.80
2018-08-31T18:06:59.674Z,92.50
2018-08-31T18:09:27.930Z,92.80
2018-08-31T18:11:56.067Z,92.90
2018-08-31T18:14:24.273Z,92.90
2018-08-31T18:16:52.478Z,92.90
2018-08-31T18:19:20.697Z,92.40
2018-08-31T18:21:48.887Z,92.60
2018-08-31T18:24:17.681Z,92.70
2018-08-31T18:26:45.863Z,92.10
2018-08-31T18:29:14.085Z,91.90
2018-08-31T18:31:42.565Z,92.30
2018-08-31T18:34:10.775Z,91.80
2018-08-31T18:36:38.958Z,92.10
2018-08-31T18:39:07.831Z,92.00
2018-08-31T18:41:36.422Z,91.70
2018-08-31T18:44:04.762Z,91.80
2018-08-31T18:46:33.023Z,92.00
2018-08-31T18:49:01.166Z,92.10
2018-08-31T18:51:29.338Z,92.70
2018-08-31T18:53:57.539Z,92.60
2018-08-31T18:56:25.743Z,92.60
2018-08-31T18:58:53.942Z,92.40
2018-08-31T19:01:22.136Z,92.60
2018-08-31T19:03:50.592Z,92.40
2018-08-31T19:06:18.816Z,92.60
2018-08-31T19:08:47.021Z,92.80
2018-08-31T19:11:15.211Z,92.80
2018-08-31T19:13:43.959Z,92.90
2018-08-31T19:16:12.141Z,92.90
2018-08-31T19:18:40.384Z,92.70
2018-08-31T19:21:08.509Z,92.80
2018-08-31T19:23:36.804Z,93.10
2018-08-31T19:26:05.012Z,93.00
2018-08-31T19:28:33.187Z,93.40
2018-08-31T19:31:01.408Z,93.10
2018-08-31T19:33:29.591Z,93.10
2018-08-31T19:35:57.792Z,93.20
2018-08-31T19:38:25.999Z,93.10
2018-08-31T19:40:54.190Z,93.00
2018-08-31T19:43:22.383Z,93.10
2018-08-31T19:45:50.577Z,93.00
2018-08-31T19:48:18.762Z,93.10
2018-08-31T19:50:46.995Z,93.00
2018-08-31T19:53:15.191Z,93.00
2018-08-31T19:55:43.374Z,93.20
2018-08-31T19:58:11.559Z,93.40
2018-08-31T20:00:40.027Z,93.10
2018-08-31T20:03:08.887Z,93.40
2018-08-31T20:05:37.127Z,93.00
2018-08-31T20:08:05.353Z,92.80
2018-08-31T20:10:33.573Z,93.30
2018-08-31T20:13:01.771Z,93.20
2018-08-31T20:15:29.971Z,93.10
2018-08-31T20:17:58.435Z,93.10
2018-08-31T20:20:26.930Z,93.10
2018-08-31T20:22:55.111Z,93.00
2018-08-31T20:25:23.319Z,93.10
2018-08-31T20:27:51.501Z,92.70
2018-08-31T20:30:19.695Z,92.90
2018-08-31T20:32:47.878Z,92.90
2018-08-31T20:35:16.063Z,92.90
2018-08-31T20:37:44.242Z,93.10
2018-08-31T20:40:12.439Z,92.90
2018-08-31T20:42:40.622Z,92.80
2018-08-31T20:45:08.939Z,92.90
2018-08-31T20:47:37.118Z,92.80
2018-08-31T20:50:05.591Z,93.10
2018-08-31T20:52:33.758Z,92.70
2018-08-31T20:55:01.967Z,93.10
2018-08-31T20:57:30.195Z,93.00
2018-08-31T20:59:58.626Z,92.90
2018-08-31T21:02:27.025Z,92.70
2018-08-31T21:04:55.192Z,92.70
2018-08-31T21:07:23.394Z,92.80
2018-08-31T21:09:51.566Z,93.00
2018-08-31T21:12:19.750Z,92.90
2018-08-31T21:14:47.918Z,93.00
2018-08-31T21:17:16.378Z,92.70
2018-08-31T21:19:44.561Z,93.10
2018-08-31T21:22:12.746Z,93.00
2018-08-31T21:24:40.950Z,93.30
2018-08-31T21:27:09.154Z,93.20
2018-08-31T21:29:37.358Z,93.20
2018-08-31T21:32:05.804Z,93.40
2018-08-31T21:34:34.287Z,93.20
2018-08-31T21:37:02.466Z,93.10
2018-08-31T21:39:30.642Z,93.10
2018-08-31T21:41:58.844Z,93.10
2018-08-31T21:44:27.041Z,93.10
2018-08-31T21:46:55.243Z,93.20
2018-08-31T21:49:23.475Z,93.20
2018-08-31T21:51:52.620Z,93.40
2018-08-31T21:54:20.999Z,93.50
2018-08-31T21:56:49.196Z,93.30
2018-08-31T21:59:17.371Z,93.30
2018-08-31T22:01:49.790Z,93.60
2018-08-31T22:04:17.967Z,93.40
2018-08-31T22:06:46.154Z,93.20
2018-08-31T22:09:14.340Z,93.30
2018-08-31T22:11:42.538Z,93.40
2018-08-31T22:14:10.715Z,93.40
2018-08-31T22:16:38.893Z,93.40
2018-08-31T22:19:07.062Z,93.30
2018-08-31T22:21:35.786Z,93.40
2018-08-31T22:24:03.963Z,93.40
2018-08-31T22:26:32.406Z,93.40
2018-08-31T22:29:00.593Z,93.30
2018-08-31T22:31:28.788Z,93.40
2018-08-31T22:33:56.979Z,93.40
2018-08-31T22:36:25.220Z,93.20
2018-08-31T22:38:53.444Z,93.10
2018-08-31T22:41:21.886Z,93.30
2018-08-31T22:43:51.187Z,93.10
2018-08-31T22:46:20.562Z,93.20
2018-08-31T22:48:49.350Z,93.00
2018-08-31T22:51:17.842Z,93.20
2018-08-31T22:53:46.091Z,93.30
2018-08-31T22:56:14.370Z,92.90
2018-08-31T22:58:42.645Z,93.10
2018-08-31T23:01:10.831Z,93.00
2018-08-31T23:03:39.029Z,93.30
2018-08-31T23:06:07.214Z,93.10
2018-08-31T23:08:35.400Z,93.10
2018-08-31T23:11:03.588Z,93.20
2018-08-31T23:13:31.794Z,93.10
2018-08-31T23:15:59.995Z,93.00
2018-08-31T23:18:28.212Z,93.00
2018-08-31T23:20:56.408Z,93.10
2018-08-31T23:23:32.837Z,93.00
2018-08-31T23:26:01.214Z,92.80
2018-08-31T23:28:29.703Z,93.20
2018-08-31T23:30:57.903Z,93.00
2018-08-31T23:33:26.086Z,93.00
2018-08-31T23:35:54.258Z,93.30
2018-08-31T23:38:22.446Z,93.10
2018-08-31T23:40:50.861Z,93.30
2018-08-31T23:43:19.038Z,93.30
2018-08-31T23:45:47.267Z,93.40
2018-08-31T23:48:15.934Z,93.20
2018-08-31T23:50:44.107Z,93.50
2018-08-31T23:53:12.291Z,93.00
2018-08-31T23:55:40.510Z,93.00
2018-08-31T23:58:08.715Z,93.30
